CheckWX is a tool to help pilots better visualize weather data.  It is not intended as a substitute for an official pre-flight weather briefing.

06:28:56 UTC

KFKR METAR
Frankfort Municipal Airport
Frankfort, Indiana, USA
Current

14 mins ago

KFKR 190615Z AUTO 13004KT 10SM CLR 17/14 A3012 RMK AO2 T01700140
Observed
Sep-19 @ 06:15 UTC
Wind
  • 130° at 4 KTS
Visibility
10 SM
Flight Rules
VFR
Cloud Levels
  • Clear skies
Temperature
17°C / 63°F
Dewpoint
14°C / 57°F
Humidity
83%
Altimeter
30.12" Hg
Pressure
1020.02 hPa
Previous

34 mins ago

KFKR 190555Z AUTO 13005KT 10SM CLR 17/14 A3012 RMK AO2 T01740142 10235 20174 402890148
Observed
Sep-19 @ 05:55 UTC
Wind
  • 130° at 5 KTS
Visibility
10 SM
Flight Rules
VFR
Cloud Levels
  • Clear skies
Temperature
17°C / 63°F
Dewpoint
14°C / 57°F
Humidity
83%
Altimeter
30.12" Hg
Pressure
1020.02 hPa
Previous

54 mins ago

KFKR 190535Z AUTO 13005KT 10SM CLR 18/14 A3011 RMK AO2 T01800141
Observed
Sep-19 @ 05:35 UTC
Wind
  • 130° at 5 KTS
Visibility
10 SM
Flight Rules
VFR
Cloud Levels
  • Clear skies
Temperature
18°C / 64°F
Dewpoint
14°C / 57°F
Humidity
78%
Altimeter
30.11" Hg
Pressure
1019.62 hPa